This is the latest recevied weather packets stored in our database for station/object FREPRT-WX. If no packets are shown the sender has not sent any weather packets the latest 1 day(s).
| Time | Temp. | Humidity | Pressure | Rain* | Wind** | Luminosity | Snow |
|---|---|---|---|---|---|---|---|
| 1778085056 | 10.56° C | 45% | 984.3 hPa | 0 mm | - | - | - |
| 1778080543 | 8.89° C | 51% | 984.3 hPa | 0 mm | - | - | - |
| 1778075139 | 7.22° C | 64% | 983.2 hPa | 0 mm | - | - | - |
| 1778072469 | 6.11° C | 64% | 983.2 hPa | 0 mm | - | - | - |
| 1778065272 | 2.78° C | 76% | 981.6 hPa | 0 mm | - | - | - |
| 1778061674 | 3.33° C | 76% | 981.5 hPa | 0 mm | - | - | - |
| 1778059857 | 3.33° C | 72% | 980.9 hPa | 0 mm | - | - | - |
| 1778058940 | 3.89° C | 72% | 980.9 hPa | 0 mm | - | - | - |
| 1778057140 | 3.89° C | 70% | 980.3 hPa | 0 mm | - | - | - |
| 1778056254 | 3.89° C | 73% | 980.9 hPa | 0 mm | - | - | - |
| 1778054474 | 4.44° C | 73% | 980.9 hPa | 0 mm | - | - | - |
| 1778053539 | 4.44° C | 71% | 980.8 hPa | 0 mm | - | - | - |
| 1778052658 | 5° C | 71% | 980.9 hPa | 0 mm | - | - | - |
| 1778048140 | 5.56° C | 70% | 981.1 hPa | 0 mm | - | - | - |
| 1778045455 | 6.11° C | 71% | 981.1 hPa | 0 mm | - | - | - |
| 1778043675 | 6.11° C | 71% | 981 hPa | 0 mm | - | - | - |
| 1778042740 | 6.67° C | 64% | 981.8 hPa | 0 mm | - | - | - |
| 1778041855 | 6.67° C | 68% | 981.3 hPa | 0 mm | - | - | - |
| 1778040940 | 6.67° C | 68% | 981.3 hPa | 0 mm | - | - | - |
| 1778040077 | 6.67° C | 68% | 981.3 hPa | 0 mm | - | - | - |
| 1778039137 | 6.67° C | 61% | 981 hPa | 0 mm | - | - | - |
| 1778036478 | 7.22° C | 61% | 980.9 hPa | 0 mm | - | - | - |
| 1778034657 | 7.78° C | 55% | 981.1 hPa | 0 mm | - | - | - |
| 1778032863 | 7.78° C | 55% | 981.1 hPa | 0 mm | - | - | - |
| 1778031060 | 8.33° C | 49% | 980.7 hPa | 0 mm | - | - | - |
* Rain latest hour (hover to see other rain measurements)
** Current wind speed in m/s (hover to see current wind gust speed)